createdAt,value
2019-05-06T00:00:58.737Z,4.60
2019-05-06T00:03:24.303Z,4.60
2019-05-06T00:05:54.245Z,4.70
2019-05-06T00:08:23.683Z,4.70
2019-05-06T00:10:54.094Z,4.70
2019-05-06T00:13:24.031Z,4.60
2019-05-06T00:15:54.203Z,4.60
2019-05-06T00:18:24.422Z,4.60
2019-05-06T00:20:54.690Z,4.60
2019-05-06T00:23:24.924Z,4.60
2019-05-06T00:26:06.858Z,4.50
2019-05-06T00:28:36.775Z,4.50
2019-05-06T00:31:16.332Z,4.50
2019-05-06T00:33:44.306Z,4.50
2019-05-06T00:36:14.134Z,4.40
2019-05-06T00:38:44.816Z,4.40
2019-05-06T00:41:17.796Z,4.40
2019-05-06T00:43:46.100Z,4.40
2019-05-06T00:46:14.639Z,4.30
2019-05-06T00:48:44.797Z,4.20
2019-05-06T00:51:13.533Z,4.10
2019-05-06T00:53:43.757Z,4.10
2019-05-06T00:56:14.002Z,4.00
2019-05-06T00:58:43.604Z,4.00
2019-05-06T01:01:24.068Z,4.00
2019-05-06T01:03:44.129Z,4.00
2019-05-06T01:06:14.104Z,4.00
2019-05-06T01:08:43.909Z,4.00
2019-05-06T01:11:12.017Z,4.00
2019-05-06T01:13:47.713Z,3.90
2019-05-06T01:16:17.646Z,3.90
2019-05-06T01:18:45.903Z,3.90
2019-05-06T01:21:14.656Z,3.90
2019-05-06T01:23:43.908Z,3.90
2019-05-06T01:26:15.013Z,3.80
2019-05-06T01:28:43.631Z,3.80
2019-05-06T01:31:13.848Z,3.70
2019-05-06T01:33:41.890Z,3.60
2019-05-06T01:36:10.188Z,3.60
2019-05-06T01:38:45.938Z,3.50
2019-05-06T01:41:21.700Z,3.40
2019-05-06T01:43:49.957Z,3.40
2019-05-06T01:46:18.239Z,3.30
2019-05-06T01:48:49.618Z,3.20
2019-05-06T01:51:19.982Z,3.10
2019-05-06T01:53:48.684Z,3.00
2019-05-06T01:56:16.949Z,3.00
2019-05-06T01:58:45.310Z,2.90
2019-05-06T02:01:14.932Z,2.80
2019-05-06T02:03:44.221Z,2.80
2019-05-06T02:06:14.123Z,2.70
2019-05-06T02:08:44.554Z,2.60
2019-05-06T02:11:14.670Z,2.60
2019-05-06T02:13:44.184Z,2.60
2019-05-06T02:16:14.657Z,2.50
2019-05-06T02:18:44.857Z,2.50
2019-05-06T02:21:29.475Z,2.40
2019-05-06T02:24:04.132Z,2.40
2019-05-06T02:26:34.204Z,2.30
2019-05-06T02:29:04.268Z,2.30
2019-05-06T02:31:50.559Z,2.20
2019-05-06T02:34:26.304Z,2.20
2019-05-06T02:36:58.879Z,2.20
2019-05-06T02:39:27.144Z,2.10
2019-05-06T02:41:55.396Z,2.10
2019-05-06T02:44:24.108Z,2.10
2019-05-06T02:46:54.139Z,2.10
2019-05-06T02:49:32.769Z,2.10
2019-05-06T02:52:02.812Z,2.00
2019-05-06T02:54:29.818Z,2.10
2019-05-06T02:56:58.083Z,2.00
2019-05-06T02:59:26.366Z,2.00
2019-05-06T03:01:54.697Z,2.00
2019-05-06T03:04:23.685Z,2.00
2019-05-06T03:06:53.241Z,1.90
2019-05-06T03:09:23.354Z,1.80
2019-05-06T03:11:53.921Z,1.80
2019-05-06T03:14:23.351Z,1.80
2019-05-06T03:16:53.890Z,1.70
2019-05-06T03:19:24.046Z,1.80
2019-05-06T03:21:54.630Z,1.70
2019-05-06T03:24:24.861Z,1.60
2019-05-06T03:26:56.965Z,1.60
2019-05-06T03:29:25.266Z,1.60
2019-05-06T03:31:56.381Z,1.50
2019-05-06T03:34:48.750Z,1.50
2019-05-06T03:36:56.082Z,1.50
2019-05-06T03:39:23.838Z,1.50
2019-05-06T03:41:53.728Z,1.40
2019-05-06T03:44:23.967Z,1.50
2019-05-06T03:47:08.948Z,1.50
2019-05-06T03:49:38.938Z,1.40
2019-05-06T03:52:07.271Z,1.40
2019-05-06T03:54:35.563Z,1.30
2019-05-06T03:57:04.367Z,1.30
2019-05-06T03:59:33.492Z,1.30
2019-05-06T04:02:04.910Z,1.30
2019-05-06T04:04:33.270Z,1.20
2019-05-06T04:07:03.419Z,1.20
2019-05-06T04:09:33.505Z,1.20
2019-05-06T04:12:03.504Z,1.10
2019-05-06T04:14:33.817Z,1.10
2019-05-06T04:17:13.059Z,1.10
2019-05-06T04:19:43.809Z,1.20
2019-05-06T04:22:28.629Z,1.30
2019-05-06T04:24:58.599Z,1.30
2019-05-06T04:27:33.289Z,1.40
2019-05-06T04:30:00.359Z,1.40
2019-05-06T04:32:28.612Z,1.50
2019-05-06T04:34:56.919Z,1.60
2019-05-06T04:37:25.184Z,1.60
2019-05-06T04:39:53.724Z,1.80
2019-05-06T04:42:26.322Z,1.80
2019-05-06T04:44:53.145Z,2.10
2019-05-06T04:47:24.154Z,2.30
2019-05-06T04:49:53.240Z,2.40
2019-05-06T04:52:22.880Z,2.50
2019-05-06T04:54:53.415Z,2.50
2019-05-06T04:57:23.856Z,2.60
2019-05-06T04:59:54.150Z,2.70
2019-05-06T05:02:23.047Z,2.70
2019-05-06T05:04:52.931Z,2.70
2019-05-06T05:07:22.451Z,2.70
2019-05-06T05:09:53.509Z,2.80
2019-05-06T05:12:26.138Z,2.90
2019-05-06T05:15:12.280Z,2.90
2019-05-06T05:17:42.198Z,3.00
2019-05-06T05:20:12.671Z,3.00
2019-05-06T05:22:42.365Z,3.10
2019-05-06T05:25:12.185Z,3.20
2019-05-06T05:27:42.163Z,3.30
2019-05-06T05:30:12.387Z,3.40
2019-05-06T05:32:42.648Z,3.50
2019-05-06T05:35:12.548Z,3.60
2019-05-06T05:37:41.936Z,3.60
2019-05-06T05:40:10.438Z,3.60
2019-05-06T05:42:46.508Z,3.60
2019-05-06T05:45:14.759Z,3.60
2019-05-06T05:47:43.215Z,3.60
2019-05-06T05:50:13.353Z,3.80
2019-05-06T05:52:42.559Z,3.90
2019-05-06T05:55:12.145Z,4.10
2019-05-06T05:57:43.095Z,4.20
2019-05-06T06:00:12.958Z,4.30
2019-05-06T06:02:43.669Z,4.40
2019-05-06T06:05:12.411Z,4.40
2019-05-06T06:07:42.228Z,4.40
2019-05-06T06:10:22.563Z,4.40
2019-05-06T06:12:52.803Z,4.60
2019-05-06T06:15:22.805Z,4.60
2019-05-06T06:18:02.976Z,4.70
2019-05-06T06:20:52.754Z,4.70
2019-05-06T06:23:41.984Z,4.80
2019-05-06T06:26:12.134Z,4.90
2019-05-06T06:28:42.419Z,5.20
2019-05-06T06:31:17.383Z,5.20
2019-05-06T06:33:45.805Z,5.40
2019-05-06T06:36:23.110Z,5.40
2019-05-06T06:38:53.164Z,5.60
2019-05-06T06:41:22.866Z,5.70
2019-05-06T06:43:52.879Z,5.80
2019-05-06T06:46:22.390Z,5.90
2019-05-06T06:48:52.616Z,6.00
2019-05-06T06:51:23.186Z,6.00
2019-05-06T06:53:52.828Z,6.10
2019-05-06T06:56:22.635Z,6.00
2019-05-06T06:58:52.546Z,6.00
2019-05-06T07:01:23.482Z,6.00
2019-05-06T07:03:53.570Z,6.10
2019-05-06T07:06:23.505Z,6.10
2019-05-06T07:08:51.866Z,6.20
2019-05-06T07:11:22.024Z,6.20
2019-05-06T07:13:53.191Z,6.30
2019-05-06T07:16:23.536Z,6.40
2019-05-06T07:18:52.609Z,6.40
2019-05-06T07:21:22.817Z,6.40
2019-05-06T07:23:52.997Z,6.50
2019-05-06T07:26:23.855Z,6.60
2019-05-06T07:28:52.669Z,6.60
2019-05-06T07:31:23.870Z,6.50
2019-05-06T07:33:52.225Z,6.50
2019-05-06T07:36:22.677Z,6.60
2019-05-06T07:38:52.690Z,6.60
2019-05-06T07:41:36.307Z,6.70
2019-05-06T07:44:05.796Z,6.80
2019-05-06T07:46:42.743Z,6.90
2019-05-06T07:49:12.613Z,6.80
2019-05-06T07:51:41.997Z,6.80
2019-05-06T07:54:12.216Z,6.90
2019-05-06T07:56:42.710Z,6.90
2019-05-06T07:59:12.573Z,7.20
2019-05-06T08:01:43.478Z,7.20
2019-05-06T08:04:12.032Z,7.40
2019-05-06T08:06:42.476Z,7.50
2019-05-06T08:09:12.717Z,7.50
2019-05-06T08:11:42.292Z,7.60
2019-05-06T08:14:12.738Z,7.70
2019-05-06T08:16:53.112Z,7.70
2019-05-06T08:19:22.723Z,7.80
2019-05-06T08:21:52.624Z,7.80
2019-05-06T08:24:22.762Z,8.00
2019-05-06T08:26:52.197Z,8.00
2019-05-06T08:29:22.380Z,8.10
2019-05-06T08:31:52.407Z,8.00
2019-05-06T08:34:22.479Z,8.10
2019-05-06T08:36:53.373Z,8.00
2019-05-06T08:39:22.074Z,7.90
2019-05-06T08:41:50.364Z,7.90
2019-05-06T08:44:18.663Z,7.90
2019-05-06T08:46:46.914Z,7.80
2019-05-06T08:49:15.203Z,7.90
2019-05-06T08:51:52.913Z,8.00
2019-05-06T08:54:22.883Z,8.10
2019-05-06T08:56:52.325Z,8.10
2019-05-06T08:59:20.698Z,8.00
2019-05-06T09:01:56.626Z,7.90
2019-05-06T09:04:24.890Z,8.00
2019-05-06T09:06:53.636Z,8.10
2019-05-06T09:09:22.508Z,8.20
2019-05-06T09:11:53.251Z,8.20
2019-05-06T09:14:23.276Z,8.40
2019-05-06T09:16:54.221Z,8.40
2019-05-06T09:19:23.417Z,8.60
2019-05-06T09:21:53.359Z,8.60
2019-05-06T09:24:23.094Z,11.90
2019-05-06T09:26:56.205Z,8.60
2019-05-06T09:29:26.133Z,8.80
2019-05-06T09:31:56.035Z,8.90
2019-05-06T09:34:35.109Z,9.10
2019-05-06T09:37:17.216Z,9.40
2019-05-06T09:39:45.637Z,9.50
2019-05-06T09:42:14.110Z,9.30
2019-05-06T09:44:46.002Z,9.20
2019-05-06T09:47:15.884Z,9.50
2019-05-06T09:49:44.263Z,9.80
2019-05-06T09:52:13.125Z,9.90
2019-05-06T09:54:45.875Z,10.00
2019-05-06T09:57:22.095Z,10.10
2019-05-06T09:59:52.627Z,10.20
2019-05-06T10:02:23.083Z,10.20
2019-05-06T10:04:52.205Z,10.60
2019-05-06T10:07:22.541Z,10.90
2019-05-06T10:09:52.701Z,11.00
2019-05-06T10:12:20.771Z,10.70
2019-05-06T10:14:49.038Z,10.80
2019-05-06T10:17:17.342Z,10.90
2019-05-06T10:19:45.631Z,10.40
2019-05-06T10:22:13.978Z,10.10
2019-05-06T10:24:43.013Z,9.90
2019-05-06T10:27:12.262Z,9.70
2019-05-06T10:29:45.198Z,9.40
2019-05-06T10:32:17.666Z,9.10
2019-05-06T10:34:45.955Z,9.10
2019-05-06T10:37:21.859Z,9.20
2019-05-06T10:39:59.223Z,9.20
2019-05-06T10:42:32.484Z,9.50
2019-05-06T10:45:12.258Z,10.60
2019-05-06T10:47:42.220Z,11.60
2019-05-06T10:50:12.440Z,11.40
2019-05-06T10:52:58.073Z,11.30
2019-05-06T10:55:26.479Z,11.00
2019-05-06T10:57:54.762Z,11.10
2019-05-06T11:00:23.271Z,10.80
2019-05-06T11:03:14.411Z,10.50
2019-05-06T11:05:43.113Z,10.40
2019-05-06T11:08:11.134Z,10.40
2019-05-06T11:10:41.375Z,10.10
2019-05-06T11:13:09.591Z,10.00
2019-05-06T11:15:37.849Z,9.90
2019-05-06T11:18:06.128Z,9.60
2019-05-06T11:20:34.398Z,9.40
2019-05-06T11:23:02.853Z,9.10
2019-05-06T11:25:32.272Z,9.00
2019-05-06T11:28:02.765Z,8.80
2019-05-06T11:30:37.994Z,8.80
2019-05-06T11:33:13.073Z,8.80
2019-05-06T11:35:57.578Z,8.80
2019-05-06T11:38:25.884Z,8.90
2019-05-06T11:40:54.135Z,9.10
2019-05-06T11:43:22.849Z,9.20
2019-05-06T11:45:52.120Z,9.40
2019-05-06T11:48:22.306Z,9.80
2019-05-06T11:50:52.445Z,10.00
2019-05-06T11:53:22.950Z,10.60
2019-05-06T11:55:54.351Z,11.20
2019-05-06T11:58:42.729Z,12.00
2019-05-06T12:01:13.510Z,12.50
2019-05-06T12:03:42.682Z,13.00
2019-05-06T12:06:13.109Z,13.40
2019-05-06T12:08:43.120Z,13.40
2019-05-06T12:11:12.646Z,12.80
2019-05-06T12:13:42.595Z,12.40
2019-05-06T12:16:14.071Z,12.10
2019-05-06T12:18:42.252Z,11.70
2019-05-06T12:21:14.617Z,11.70
2019-05-06T12:23:44.339Z,11.60
2019-05-06T12:26:13.017Z,11.70
2019-05-06T12:28:43.205Z,12.10
2019-05-06T12:31:12.657Z,12.00
2019-05-06T12:33:42.793Z,11.90
2019-05-06T12:36:14.941Z,11.60
2019-05-06T12:39:06.395Z,11.60
2019-05-06T12:41:33.342Z,11.50
2019-05-06T12:44:03.103Z,11.20
2019-05-06T12:46:33.226Z,11.10
2019-05-06T12:49:03.111Z,11.10
2019-05-06T12:51:32.280Z,12.40
2019-05-06T12:54:03.336Z,13.10
2019-05-06T12:56:30.699Z,13.40
2019-05-06T12:58:58.974Z,13.70
2019-05-06T13:01:27.285Z,13.70
2019-05-06T13:03:55.557Z,13.60
2019-05-06T13:06:26.409Z,13.60
2019-05-06T13:09:01.301Z,13.70
2019-05-06T13:11:24.003Z,12.80
2019-05-06T13:13:59.737Z,12.60
2019-05-06T13:16:22.874Z,12.40
2019-05-06T13:18:54.167Z,12.10
2019-05-06T13:21:22.317Z,11.70
2019-05-06T13:23:52.399Z,11.60
2019-05-06T13:26:22.314Z,11.40
2019-05-06T13:28:53.201Z,11.10
2019-05-06T13:31:25.318Z,10.90
2019-05-06T13:33:54.582Z,10.90
2019-05-06T13:36:23.331Z,10.90
2019-05-06T13:38:56.654Z,11.00
2019-05-06T13:41:22.202Z,11.10
2019-05-06T13:43:54.080Z,11.20
2019-05-06T13:46:24.135Z,11.20
2019-05-06T13:48:57.606Z,11.20
2019-05-06T13:51:27.643Z,11.00
2019-05-06T13:53:56.013Z,10.90
2019-05-06T13:56:24.369Z,10.70
2019-05-06T13:58:52.739Z,10.60
2019-05-06T14:01:28.763Z,10.40
2019-05-06T14:03:57.049Z,10.10
2019-05-06T14:06:25.330Z,9.70
2019-05-06T14:08:53.660Z,9.50
2019-05-06T14:11:23.019Z,9.50
2019-05-06T14:13:52.939Z,9.30
2019-05-06T14:16:24.582Z,9.20
2019-05-06T14:18:53.440Z,9.10
2019-05-06T14:21:22.822Z,9.10
2019-05-06T14:23:51.253Z,9.00
2019-05-06T14:26:27.206Z,8.90
2019-05-06T14:29:02.180Z,8.80
2019-05-06T14:31:32.693Z,8.80
2019-05-06T14:34:01.129Z,8.80
2019-05-06T14:36:29.434Z,8.60
2019-05-06T14:38:57.729Z,8.70
2019-05-06T14:41:27.496Z,8.70
2019-05-06T14:43:55.898Z,8.90
2019-05-06T14:46:24.278Z,9.10
2019-05-06T14:48:53.475Z,9.20
2019-05-06T14:51:22.331Z,9.30
2019-05-06T14:53:52.999Z,9.20
2019-05-06T14:56:25.280Z,9.30
2019-05-06T14:59:08.659Z,9.10
2019-05-06T15:01:37.621Z,9.10
2019-05-06T15:04:05.884Z,9.10
2019-05-06T15:06:34.236Z,9.10
2019-05-06T15:09:03.766Z,9.00
2019-05-06T15:11:32.544Z,9.20
2019-05-06T15:14:03.473Z,9.80
2019-05-06T15:16:30.881Z,10.60
2019-05-06T15:18:59.150Z,11.50
2019-05-06T15:21:37.140Z,12.70
2019-05-06T15:23:57.463Z,13.20
2019-05-06T15:26:25.843Z,12.60
2019-05-06T15:28:54.119Z,11.80
2019-05-06T15:31:27.091Z,11.70
2019-05-06T15:33:57.003Z,11.50
2019-05-06T15:36:30.003Z,11.30
2019-05-06T15:38:58.263Z,11.10
2019-05-06T15:41:26.569Z,11.10
2019-05-06T15:43:54.916Z,11.00
2019-05-06T15:46:23.213Z,11.40
2019-05-06T15:48:52.942Z,12.20
2019-05-06T15:51:22.994Z,12.80
2019-05-06T15:53:52.955Z,12.90
2019-05-06T15:56:23.075Z,12.20
2019-05-06T15:58:51.509Z,11.80
2019-05-06T16:01:19.814Z,11.50
2019-05-06T16:03:48.074Z,11.80
2019-05-06T16:06:16.371Z,11.60
2019-05-06T16:08:44.668Z,11.50
2019-05-06T16:11:13.015Z,11.70
2019-05-06T16:13:42.118Z,11.40
2019-05-06T16:16:11.350Z,11.10
2019-05-06T16:18:39.610Z,11.10
2019-05-06T16:21:07.898Z,11.00
2019-05-06T16:23:37.810Z,10.90
2019-05-06T16:26:06.111Z,10.80
2019-05-06T16:28:34.389Z,10.70
2019-05-06T16:31:02.760Z,10.70
2019-05-06T16:33:32.950Z,10.70
2019-05-06T16:36:01.064Z,10.80
2019-05-06T16:38:29.353Z,10.50
2019-05-06T16:41:09.584Z,10.50
2019-05-06T16:43:27.644Z,10.50
2019-05-06T16:45:55.919Z,10.60
2019-05-06T16:48:24.206Z,10.70
2019-05-06T16:50:52.653Z,10.60
2019-05-06T16:53:22.920Z,10.40
2019-05-06T16:56:02.231Z,10.40
2019-05-06T16:58:32.941Z,10.20
2019-05-06T17:01:03.229Z,12.20
2019-05-06T17:03:36.241Z,9.80
2019-05-06T17:06:06.134Z,9.60
2019-05-06T17:08:36.459Z,9.60
2019-05-06T17:11:05.010Z,9.50
2019-05-06T17:13:34.746Z,9.50
2019-05-06T17:16:03.374Z,9.30
2019-05-06T17:18:32.986Z,9.30
2019-05-06T17:21:01.400Z,9.30
2019-05-06T17:23:31.877Z,9.30
2019-05-06T17:25:59.685Z,9.20
2019-05-06T17:28:47.799Z,9.20
2019-05-06T17:31:17.779Z,9.20
2019-05-06T17:33:47.696Z,9.00
2019-05-06T17:36:17.602Z,8.90
2019-05-06T17:38:47.534Z,8.90
2019-05-06T17:41:15.819Z,8.90
2019-05-06T17:43:44.317Z,8.90
2019-05-06T17:46:14.288Z,8.90
2019-05-06T17:48:59.305Z,8.90
2019-05-06T17:51:29.181Z,8.90
2019-05-06T17:54:02.037Z,8.90
2019-05-06T17:56:30.329Z,8.90
2019-05-06T17:58:58.703Z,8.80
2019-05-06T18:01:29.393Z,8.80
2019-05-06T18:03:57.680Z,8.70
2019-05-06T18:06:25.968Z,8.50
2019-05-06T18:08:54.224Z,8.40
2019-05-06T18:11:22.675Z,8.30
2019-05-06T18:13:52.128Z,8.10
2019-05-06T18:16:22.254Z,8.00
2019-05-06T18:18:52.276Z,7.70
2019-05-06T18:21:22.769Z,7.50
2019-05-06T18:23:52.284Z,7.30
2019-05-06T18:26:22.784Z,7.00
2019-05-06T18:28:52.610Z,6.90
2019-05-06T18:31:22.103Z,6.90
2019-05-06T18:33:52.620Z,6.70
2019-05-06T18:36:22.727Z,6.60
2019-05-06T18:38:52.605Z,6.50
2019-05-06T18:41:20.698Z,6.40
2019-05-06T18:43:48.999Z,6.40
2019-05-06T18:46:17.374Z,6.40
2019-05-06T18:48:45.628Z,6.40
2019-05-06T18:51:13.945Z,8.40
2019-05-06T18:53:42.343Z,6.40
2019-05-06T18:56:12.611Z,6.30
2019-05-06T18:58:42.753Z,6.30
2019-05-06T19:01:13.143Z,6.20
2019-05-06T19:03:43.050Z,6.20
2019-05-06T19:06:11.946Z,6.20
2019-05-06T19:08:53.866Z,6.10
2019-05-06T19:11:22.333Z,6.10
2019-05-06T19:13:52.504Z,6.10
2019-05-06T19:16:22.310Z,6.10
2019-05-06T19:18:52.182Z,6.10
2019-05-06T19:21:24.311Z,6.00
2019-05-06T19:23:51.948Z,6.00
2019-05-06T19:26:20.734Z,6.00
2019-05-06T19:28:49.054Z,6.00
2019-05-06T19:31:17.390Z,6.00
2019-05-06T19:33:45.691Z,6.00
2019-05-06T19:36:13.935Z,6.00
2019-05-06T19:38:42.514Z,6.00
2019-05-06T19:41:12.666Z,6.00
2019-05-06T19:43:40.906Z,5.90
2019-05-06T19:46:09.186Z,5.90
2019-05-06T19:48:37.556Z,5.90
2019-05-06T19:51:05.830Z,5.80
2019-05-06T19:53:34.195Z,5.80
2019-05-06T19:56:02.831Z,5.80
2019-05-06T19:58:31.744Z,5.80
2019-05-06T20:01:02.401Z,5.80
2019-05-06T20:03:32.688Z,5.80
2019-05-06T20:06:02.525Z,5.80
2019-05-06T20:08:47.575Z,5.80
2019-05-06T20:11:23.062Z,5.80
2019-05-06T20:13:52.572Z,5.80
2019-05-06T20:16:22.899Z,5.80
2019-05-06T20:18:52.573Z,5.80
2019-05-06T20:21:23.062Z,5.80
2019-05-06T20:23:52.605Z,5.80
2019-05-06T20:26:21.966Z,5.80
2019-05-06T20:28:52.438Z,5.80
2019-05-06T20:31:22.458Z,5.80
2019-05-06T20:33:52.687Z,6.70
2019-05-06T20:36:22.411Z,5.70
2019-05-06T20:38:50.409Z,5.70
2019-05-06T20:41:18.763Z,5.70
2019-05-06T20:43:47.075Z,5.70
2019-05-06T20:46:15.355Z,5.70
2019-05-06T20:48:43.639Z,5.70
2019-05-06T20:51:12.435Z,5.70
2019-05-06T20:53:42.993Z,5.70
2019-05-06T20:56:12.408Z,5.70
2019-05-06T20:58:41.994Z,5.80
2019-05-06T21:01:10.489Z,5.70
2019-05-06T21:03:38.810Z,5.70
2019-05-06T21:06:07.117Z,5.80
2019-05-06T21:08:35.451Z,5.80
2019-05-06T21:11:04.171Z,5.80
2019-05-06T21:13:35.452Z,5.80
2019-05-06T21:16:02.519Z,5.80
2019-05-06T21:18:32.493Z,5.80
2019-05-06T21:21:02.078Z,5.90
2019-05-06T21:23:32.126Z,5.90
2019-05-06T21:26:02.983Z,5.90
2019-05-06T21:28:30.565Z,5.80
2019-05-06T21:30:58.867Z,5.90
2019-05-06T21:33:27.153Z,5.90
2019-05-06T21:35:55.429Z,5.90
2019-05-06T21:38:23.739Z,5.90
2019-05-06T21:40:52.566Z,5.90
2019-05-06T21:43:22.701Z,5.90
2019-05-06T21:45:51.113Z,5.90
2019-05-06T21:48:19.408Z,5.80
2019-05-06T21:50:47.665Z,5.80
2019-05-06T21:53:15.961Z,5.80
2019-05-06T21:55:44.264Z,5.80
2019-05-06T21:58:12.659Z,5.70
2019-05-06T22:00:43.390Z,5.70
2019-05-06T22:03:13.394Z,5.70
2019-05-06T22:05:41.971Z,5.70
2019-05-06T22:08:12.650Z,5.70
2019-05-06T22:10:42.160Z,5.70
2019-05-06T22:13:14.110Z,5.70
2019-05-06T22:15:42.094Z,5.70
2019-05-06T22:18:12.222Z,5.70
2019-05-06T22:20:58.172Z,5.70
2019-05-06T22:23:26.491Z,5.70
2019-05-06T22:26:08.304Z,5.70
2019-05-06T22:28:24.816Z,5.80
2019-05-06T22:30:53.173Z,5.80
2019-05-06T22:33:22.430Z,5.80
2019-05-06T22:35:52.038Z,5.90
2019-05-06T22:38:21.793Z,5.90
2019-05-06T22:40:50.170Z,5.80
2019-05-06T22:43:18.461Z,5.90
2019-05-06T22:45:46.720Z,5.80
2019-05-06T22:48:15.013Z,5.80
2019-05-06T22:50:43.273Z,5.80
2019-05-06T22:53:13.064Z,5.90
2019-05-06T22:55:42.792Z,5.90
2019-05-06T22:58:11.932Z,6.00
2019-05-06T23:00:42.540Z,6.00
2019-05-06T23:03:12.566Z,6.00
2019-05-06T23:05:42.317Z,6.00
2019-05-06T23:08:12.281Z,6.00
2019-05-06T23:10:42.296Z,6.00
2019-05-06T23:13:12.428Z,6.00
2019-05-06T23:15:42.111Z,6.00
2019-05-06T23:18:10.557Z,6.00
2019-05-06T23:20:38.877Z,6.00
2019-05-06T23:23:07.166Z,6.00
2019-05-06T23:25:35.569Z,6.00
2019-05-06T23:28:04.052Z,6.00
2019-05-06T23:30:33.458Z,5.90
2019-05-06T23:33:01.901Z,5.90
2019-05-06T23:35:30.233Z,6.00
2019-05-06T23:38:34.473Z,5.90
2019-05-06T23:41:38.753Z,6.00
2019-05-06T23:44:46.176Z,5.90
2019-05-06T23:47:49.925Z,5.90
2019-05-06T23:50:54.545Z,5.90
2019-05-06T23:53:59.069Z,5.80
2019-05-06T23:56:43.397Z,5.80
2019-05-06T23:59:14.363Z,5.80
